Time;durP1;ratioP1;P1;durP2;ratioP2;P2;SDS_P1;SDS_P2;PMS_P1;PMS_P2;Temp;Humidity;BMP_temperature;BMP_pressure;BME280_temperature;BME280_humidity;BME280_pressure;Samples;Min_cycle;Max_cycle;Signal;HPM_P1;HPM_P2
2021/03/07 00:00:11;;;;;;;20.17;10.43;;;;;;;-139.48;100.00;61774.03;5034091;28;20052;-63
2021/03/07 00:02:54;;;;;;;16.48;9.52;;;;;;;-139.48;100.00;61774.03;5018763;28;20095;-63
2021/03/07 00:05:39;;;;;;;16.20;9.35;;;;;;;-139.48;100.00;61774.03;5033689;28;20127;-63
2021/03/07 00:08:22;;;;;;;13.57;8.70;;;;;;;-139.48;100.00;61774.03;5018896;28;20111;-64
2021/03/07 00:11:07;;;;;;;17.90;9.48;;;;;;;-139.48;100.00;61774.03;5033908;28;20130;-63
2021/03/07 00:13:51;;;;;;;14.82;9.55;;;;;;;-139.48;100.00;61774.03;5034114;28;20064;-63
2021/03/07 00:16:35;;;;;;;16.05;8.88;;;;;;;-139.48;100.00;61774.03;5033710;28;20418;-65
2021/03/07 00:19:19;;;;;;;15.23;9.00;;;;;;;-139.48;100.00;61774.03;5033815;28;20111;-63
2021/03/07 00:22:03;;;;;;;15.48;8.35;;;;;;;-139.48;100.00;61774.03;5033447;28;20055;-63
2021/03/07 00:24:47;;;;;;;18.48;9.35;;;;;;;-139.48;100.00;61774.03;5018489;28;20125;-63
2021/03/07 00:27:32;;;;;;;24.65;12.85;;;;;;;-139.48;100.00;61774.03;5033359;28;20095;-63
2021/03/07 00:30:17;;;;;;;23.45;11.68;;;;;;;-139.48;100.00;61774.03;5018412;28;20048;-63
2021/03/07 00:33:01;;;;;;;14.95;8.55;;;;;;;-139.48;100.00;61774.03;5018315;28;20509;-64
2021/03/07 00:35:45;;;;;;;11.95;7.63;;;;;;;-139.48;100.00;61774.03;5033615;28;20124;-63
2021/03/07 00:38:29;;;;;;;13.13;7.50;;;;;;;-139.48;100.00;61774.03;5033131;28;20099;-62
2021/03/07 00:41:13;;;;;;;14.38;8.35;;;;;;;-139.48;100.00;61774.03;5018412;28;20410;-64
2021/03/07 00:43:57;;;;;;;11.68;7.70;;;;;;;-139.48;100.00;61774.03;5033442;28;20056;-63
2021/03/07 00:46:46;;;;;;;14.20;8.57;;;;;;;-139.48;100.00;61774.03;5033348;28;20072;-61
2021/03/07 00:49:32;;;;;;;14.95;8.57;;;;;;;-139.48;100.00;61774.03;5033143;28;20044;-63
2021/03/07 00:52:16;;;;;;;13.57;8.23;;;;;;;-139.48;100.00;61774.03;5033225;28;20107;-63
2021/03/07 00:55:00;;;;;;;15.13;8.90;;;;;;;-139.48;100.00;61774.03;5033388;28;20098;-63
2021/03/07 00:57:44;;;;;;;13.77;8.25;;;;;;;-139.48;100.00;61774.03;5032970;28;20049;-63
2021/03/07 01:00:29;;;;;;;16.27;8.85;;;;;;;-139.48;100.00;61774.03;5033271;28;20068;-63
2021/03/07 01:03:14;;;;;;;14.95;8.13;;;;;;;-139.48;100.00;61774.03;5018206;28;20072;-63
2021/03/07 01:05:58;;;;;;;13.68;8.75;;;;;;;-139.48;100.00;61774.03;5033236;28;20048;-63
2021/03/07 01:08:42;;;;;;;12.80;7.82;;;;;;;-139.48;100.00;61774.03;5036303;28;20094;-63
2021/03/07 01:11:26;;;;;;;12.00;7.35;;;;;;;-139.48;100.00;61774.03;5021989;28;20476;-63
2021/03/07 01:14:11;;;;;;;15.40;7.95;;;;;;;-139.48;100.00;61774.03;5022323;28;20132;-63
2021/03/07 01:16:54;;;;;;;13.95;8.30;;;;;;;-139.48;100.00;61774.03;5037329;28;20132;-63
2021/03/07 01:19:39;;;;;;;15.00;8.50;;;;;;;-139.48;100.00;61774.03;5037060;28;20118;-62
2021/03/07 01:22:23;;;;;;;13.82;8.27;;;;;;;-139.48;100.00;61774.03;5022007;28;20075;-63
2021/03/07 01:25:08;;;;;;;16.50;9.35;;;;;;;-139.48;100.00;61774.03;5037036;28;20047;-63
2021/03/07 01:27:52;;;;;;;13.48;8.80;;;;;;;-139.48;100.00;61774.03;5021844;28;20048;-61
2021/03/07 01:30:39;;;;;;;13.32;8.23;;;;;;;-139.48;100.00;61774.03;5036904;28;20061;-62
2021/03/07 01:33:23;;;;;;;15.18;9.07;;;;;;;-139.48;100.00;61774.03;5021711;28;20092;-63
2021/03/07 01:36:07;;;;;;;14.13;9.05;;;;;;;-139.48;100.00;61774.03;5021729;28;20111;-62
2021/03/07 01:38:51;;;;;;;14.43;8.52;;;;;;;-139.48;100.00;61774.03;5036766;28;20138;-63
2021/03/07 01:41:35;;;;;;;13.50;8.90;;;;;;;-139.48;100.00;61774.03;5021653;28;20180;-63
2021/03/07 01:44:19;;;;;;;16.02;8.45;;;;;;;-139.48;100.00;61774.03;5021464;28;20119;-62
2021/03/07 01:47:04;;;;;;;15.40;9.20;;;;;;;-139.48;100.00;61774.03;5036251;28;20098;-62
2021/03/07 01:49:48;;;;;;;13.63;8.65;;;;;;;-139.48;100.00;61774.03;5021249;28;20103;-63
2021/03/07 01:52:33;;;;;;;13.82;9.00;;;;;;;-139.48;100.00;61774.03;5036269;28;20044;-61
2021/03/07 01:55:19;;;;;;;11.63;7.95;;;;;;;-139.48;100.00;61774.03;5021564;28;20132;-63
2021/03/07 01:58:15;;;;;;;15.27;8.38;;;;;;;-139.48;100.00;61774.03;5021082;28;20188;-63
2021/03/07 02:01:00;;;;;;;12.65;7.90;;;;;;;-139.48;100.00;61774.03;5021082;28;20111;-63
2021/03/07 02:03:51;;;;;;;16.20;8.77;;;;;;;-139.48;100.00;61774.03;5036064;28;20470;-62
2021/03/07 02:06:35;;;;;;;15.10;8.00;;;;;;;-139.48;100.00;61774.03;5036162;28;20088;-63
2021/03/07 02:09:20;;;;;;;12.20;7.95;;;;;;;-139.48;100.00;61774.03;5036170;28;20059;-63
2021/03/07 02:12:05;;;;;;;15.80;8.77;;;;;;;-139.48;100.00;61774.03;5035875;28;20048;-62
2021/03/07 02:14:51;;;;;;;15.20;8.10;;;;;;;-139.48;100.00;61774.03;5020875;28;20438;-62
2021/03/07 02:17:36;;;;;;;13.10;7.68;;;;;;;-139.48;100.00;61774.03;5007320;28;20060;-63
2021/03/07 02:20:21;;;;;;;14.95;8.73;;;;;;;-139.48;100.00;61774.03;5035749;28;20091;-62
2021/03/07 02:23:08;;;;;;;14.70;8.23;;;;;;;-139.48;100.00;61774.03;5020891;28;20513;-63
2021/03/07 02:25:52;;;;;;;15.05;8.13;;;;;;;-139.48;100.00;61774.03;5006845;28;20056;-63
2021/03/07 02:28:36;;;;;;;13.57;8.90;;;;;;;-139.48;100.00;61774.03;5035591;28;20053;-63
2021/03/07 02:31:23;;;;;;;12.98;8.50;;;;;;;-139.48;100.00;61774.03;5020851;28;20048;-63
2021/03/07 02:34:17;;;;;;;12.48;8.77;;;;;;;-139.48;100.00;61774.03;5020604;28;20052;-63
2021/03/07 02:37:09;;;;;;;12.98;7.65;;;;;;;-139.48;100.00;61774.03;5035363;28;20129;-63
2021/03/07 02:39:54;;;;;;;13.65;8.13;;;;;;;-139.48;100.00;61774.03;5020458;28;20513;-62
2021/03/07 02:42:40;;;;;;;13.60;8.77;;;;;;;-139.48;100.00;61774.03;5020574;28;20099;-63
2021/03/07 02:45:25;;;;;;;13.25;7.80;;;;;;;-139.48;100.00;61774.03;5020888;28;20183;-62
2021/03/07 02:48:12;;;;;;;12.52;8.15;;;;;;;-139.48;100.00;61774.03;5020471;28;20048;-64
2021/03/07 02:50:58;;;;;;;14.77;8.38;;;;;;;-139.48;100.00;61774.03;5035459;28;20056;-63
2021/03/07 02:53:42;;;;;;;13.77;8.38;;;;;;;-139.48;100.00;61774.03;5020131;28;20091;-61
2021/03/07 02:56:31;;;;;;;13.18;7.97;;;;;;;-139.48;100.00;61774.03;5020127;28;20096;-63
2021/03/07 02:59:17;;;;;;;12.13;8.45;;;;;;;-139.48;100.00;61774.03;5035298;28;20041;-61
2021/03/07 03:02:03;;;;;;;13.95;8.43;;;;;;;-139.48;100.00;61774.03;5034879;28;20048;-62
2021/03/07 03:04:48;;;;;;;13.35;7.90;;;;;;;-139.48;100.00;61774.03;5020207;28;20419;-61
2021/03/07 03:07:32;;;;;;;13.38;8.38;;;;;;;-139.48;100.00;61774.03;5035061;28;20044;-63
2021/03/07 03:10:18;;;;;;;11.93;7.90;;;;;;;-139.48;100.00;61774.03;5020365;28;20087;-63
2021/03/07 03:13:03;;;;;;;12.15;7.72;;;;;;;-139.48;100.00;61774.03;5035022;28;20095;-63
2021/03/07 03:15:49;;;;;;;16.75;8.43;;;;;;;-139.48;100.00;61774.03;5034693;28;20103;-62
2021/03/07 03:18:34;;;;;;;16.98;8.95;;;;;;;-139.48;100.00;61774.03;5035111;28;20044;-62
2021/03/07 03:21:18;;;;;;;13.30;8.02;;;;;;;-139.48;100.00;61774.03;5005754;28;20045;-64
2021/03/07 03:24:02;;;;;;;14.95;8.05;;;;;;;-139.48;100.00;61774.03;5019652;28;20111;-63
2021/03/07 03:26:47;;;;;;;21.50;8.93;;;;;;;-139.48;100.00;61774.03;5019682;28;20521;-63
2021/03/07 03:29:32;;;;;;;13.38;8.50;;;;;;;-139.48;100.00;61774.03;5019348;28;20433;-65
2021/03/07 03:32:16;;;;;;;13.23;8.65;;;;;;;-139.48;100.00;61774.03;5019639;28;20465;-63
2021/03/07 03:35:01;;;;;;;13.85;9.20;;;;;;;-139.48;100.00;61774.03;5034607;28;20471;-63
2021/03/07 03:37:47;;;;;;;13.25;8.02;;;;;;;-139.48;100.00;61774.03;5034311;28;20131;-63
2021/03/07 03:40:32;;;;;;;14.88;8.32;;;;;;;-139.48;100.00;61774.03;5019473;28;20051;-62
2021/03/07 03:43:16;;;;;;;12.85;7.70;;;;;;;-139.48;100.00;61774.03;5034266;28;20052;-64
2021/03/07 03:46:01;;;;;;;13.13;7.97;;;;;;;-139.48;100.00;61774.03;5019360;28;20156;-65
2021/03/07 03:48:49;;;;;;;15.23;7.93;;;;;;;-139.48;100.00;61774.03;5034027;28;20048;-64
2021/03/07 03:51:39;;;;;;;14.02;7.93;;;;;;;-139.48;100.00;61774.03;5019307;28;20540;-65
2021/03/07 03:54:23;;;;;;;12.70;7.97;;;;;;;-139.48;100.00;61774.03;5019038;28;20461;-65
2021/03/07 03:57:08;;;;;;;13.80;8.65;;;;;;;-139.48;100.00;61774.03;5033735;28;20525;-65
2021/03/07 03:59:56;;;;;;;12.35;7.57;;;;;;;-139.48;100.00;61774.03;5019146;28;20048;-65
2021/03/07 04:02:41;;;;;;;14.13;7.88;;;;;;;-139.48;100.00;61774.03;5019145;28;20525;-65
2021/03/07 04:05:27;;;;;;;13.30;7.95;;;;;;;-139.48;100.00;61774.03;5033995;28;20453;-65
2021/03/07 04:08:13;;;;;;;13.55;7.88;;;;;;;-139.48;100.00;61774.03;5033677;28;20128;-65
2021/03/07 04:10:57;;;;;;;14.60;8.40;;;;;;;-139.48;100.00;61774.03;5033709;28;20164;-65
2021/03/07 04:13:42;;;;;;;12.50;7.95;;;;;;;-139.48;100.00;61774.03;5033595;28;20091;-63
2021/03/07 04:16:28;;;;;;;10.85;7.45;;;;;;;-139.48;100.00;61774.03;5033514;28;20063;-65
2021/03/07 04:19:12;;;;;;;14.05;7.78;;;;;;;-139.48;100.00;61774.03;5033690;28;20056;-65
2021/03/07 04:21:58;;;;;;;11.20;7.97;;;;;;;-139.48;100.00;61774.03;5033423;28;20056;-64
2021/03/07 04:24:42;;;;;;;11.80;7.63;;;;;;;-139.48;100.00;61774.03;5033420;28;20052;-65
2021/03/07 04:27:28;;;;;;;15.85;8.20;;;;;;;-139.48;100.00;61774.03;5033443;28;20048;-64
2021/03/07 04:30:14;;;;;;;14.07;8.75;;;;;;;-139.48;100.00;61774.03;5018729;28;20099;-63
2021/03/07 04:32:58;;;;;;;14.20;8.20;;;;;;;-139.48;100.00;61774.03;5018365;28;20044;-65
2021/03/07 04:35:41;;;;;;;15.48;9.00;;;;;;;-139.48;100.00;61774.03;5018637;28;20048;-65
2021/03/07 04:38:26;;;;;;;14.02;8.13;;;;;;;-139.48;100.00;61774.03;5018269;28;20493;-65
2021/03/07 04:41:10;;;;;;;15.15;8.60;;;;;;;-139.48;100.00;61774.03;5018357;28;20128;-65
2021/03/07 04:43:56;;;;;;;14.02;8.75;;;;;;;-139.48;100.00;61774.03;5018034;28;20121;-64
2021/03/07 04:46:40;;;;;;;14.60;8.48;;;;;;;-139.48;100.00;61774.03;5018423;28;20107;-65
2021/03/07 04:49:24;;;;;;;;;;;;;;;-139.48;100.00;61774.03;5033845;28;20099;-63
2021/03/07 04:52:09;;;;;;;14.05;8.73;;;;;;;-139.48;100.00;61774.03;5033464;28;19919;-65
2021/03/07 04:54:53;;;;;;;12.65;8.07;;;;;;;-139.48;100.00;61774.03;5033006;28;20083;-64
2021/03/07 04:57:37;;;;;;;13.10;8.27;;;;;;;-139.48;100.00;61774.03;5033004;28;20056;-64
2021/03/07 05:00:22;;;;;;;14.07;8.70;;;;;;;-139.48;100.00;61774.03;5033243;28;20425;-64
2021/03/07 05:03:06;;;;;;;14.70;8.90;;;;;;;-139.48;100.00;61774.03;5032966;28;20048;-64
2021/03/07 05:05:50;;;;;;;15.10;8.52;;;;;;;-139.48;100.00;61774.03;5018049;28;20103;-64
2021/03/07 05:08:35;;;;;;;16.02;8.38;;;;;;;-139.48;100.00;61774.03;5032965;28;20111;-64
2021/03/07 05:11:21;;;;;;;17.67;8.77;;;;;;;-139.48;100.00;61774.03;5032921;28;20048;-64
2021/03/07 05:14:06;;;;;;;16.02;10.48;;;;;;;-139.48;100.00;61774.03;5017935;28;20048;-64
2021/03/07 05:16:49;;;;;;;15.15;8.10;;;;;;;-139.48;100.00;61774.03;5032870;28;20092;-64
2021/03/07 05:19:33;;;;;;;13.50;8.10;;;;;;;-139.48;100.00;61774.03;5017917;28;20146;-64
2021/03/07 05:22:18;;;;;;;13.82;8.73;;;;;;;-139.48;100.00;61774.03;5033062;28;20052;-64
2021/03/07 05:25:03;;;;;;;16.98;8.98;;;;;;;-139.48;100.00;61774.03;5032821;28;20052;-64
2021/03/07 05:27:47;;;;;;;16.05;8.15;;;;;;;-139.48;100.00;61774.03;5032701;28;20563;-64
2021/03/07 05:30:31;;;;;;;13.77;8.07;;;;;;;-139.48;100.00;61774.03;5018065;28;20132;-64
2021/03/07 05:33:16;;;;;;;16.33;8.80;;;;;;;-139.48;100.00;61774.03;5032738;28;20124;-64
2021/03/07 05:36:00;;;;;;;12.50;7.57;;;;;;;-139.48;100.00;61774.03;5032674;28;20096;-64
2021/03/07 05:38:44;;;;;;;14.00;8.40;;;;;;;-139.48;100.00;61774.03;5018051;28;20052;-64
2021/03/07 05:41:29;;;;;;;14.30;8.70;;;;;;;-139.48;100.00;61774.03;5032619;28;20464;-64
2021/03/07 05:44:13;;;;;;;;;;;;;;;-139.48;100.00;61774.03;5033125;28;20489;-64
2021/03/07 05:46:57;;;;;;;15.90;8.55;;;;;;;-139.48;100.00;61774.03;5032757;28;19967;-64
2021/03/07 05:49:40;;;;;;;16.85;8.95;;;;;;;-139.48;100.00;61774.03;5018118;28;20465;-64
2021/03/07 05:52:25;;;;;;;16.48;8.48;;;;;;;-139.48;100.00;61774.03;5017613;28;20052;-64
2021/03/07 05:55:10;;;;;;;;;;;;;;;-139.48;100.00;61774.03;5021859;28;20045;-62
2021/03/07 05:57:58;;;;;;;21.45;10.98;;;;;;;-139.48;100.00;61774.03;5140523;22;20469;-68
2021/03/07 06:00:42;;;;;;;19.52;9.80;;;;;;;-139.48;100.00;61774.03;5021181;28;20116;-68
2021/03/07 06:03:27;;;;;;;17.20;9.93;;;;;;;-139.48;100.00;61774.03;5035240;28;20049;-68
2021/03/07 06:06:12;;;;;;;16.75;9.48;;;;;;;-139.48;100.00;61774.03;5035250;28;20098;-68
2021/03/07 06:09:21;;;;;;;15.55;8.38;;;;;;;-139.48;100.00;61774.03;5034873;28;20102;-68
2021/03/07 06:12:14;;;;;;;13.73;8.73;;;;;;;-139.48;100.00;61774.03;5036123;28;20540;-68
2021/03/07 06:15:02;;;;;;;17.23;8.18;;;;;;;-139.48;100.00;61774.03;5034857;28;20072;-68
2021/03/07 06:17:49;;;;;;;19.30;10.05;;;;;;;-139.48;100.00;61774.03;5034783;28;20048;-68
2021/03/07 06:20:33;;;;;;;15.02;8.77;;;;;;;-139.48;100.00;61774.03;5021441;28;20091;-68
2021/03/07 06:23:17;;;;;;;;;;;;;;;-139.48;100.00;61774.03;5036013;28;20044;-68
2021/03/07 06:26:09;;;;;;;12.02;6.85;;;;;;;-139.48;100.00;61774.03;5020954;28;19943;-67
2021/03/07 06:29:12;;;;;;;12.95;7.70;;;;;;;-139.48;100.00;61774.03;5034830;28;20497;-68
2021/03/07 06:31:56;;;;;;;13.18;8.38;;;;;;;-139.48;100.00;61774.03;5020550;28;20047;-68
2021/03/07 06:34:47;;;;;;;19.17;8.75;;;;;;;-139.48;100.00;61774.03;5034526;28;20058;-68
2021/03/07 06:37:32;;;;;;;13.65;7.40;;;;;;;-139.48;100.00;61774.03;5034451;28;20114;-68
2021/03/07 06:40:34;;;;;;;13.15;8.07;;;;;;;-139.48;100.00;61774.03;5034696;28;20510;-68
2021/03/07 06:43:24;;;;;;;13.38;7.38;;;;;;;-139.48;100.00;61774.03;5020644;28;20128;-68
2021/03/07 06:46:25;;;;;;;13.20;7.55;;;;;;;-139.48;100.00;61774.03;5020249;28;20091;-67
2021/03/07 06:49:28;;;;;;;12.52;7.15;;;;;;;-139.48;100.00;61774.03;5034556;28;20513;-68
2021/03/07 06:52:20;;;;;;;12.35;7.43;;;;;;;-139.48;100.00;61774.03;5034174;28;20132;-68
2021/03/07 06:55:12;;;;;;;10.60;6.47;;;;;;;-139.48;100.00;61774.03;5034383;28;20043;-68
2021/03/07 06:57:56;;;;;;;12.40;7.70;;;;;;;-139.48;100.00;61774.03;5033967;28;20048;-68
2021/03/07 07:00:40;;;;;;;11.10;7.32;;;;;;;-139.48;100.00;61774.03;5034020;28;20056;-68
2021/03/07 07:03:25;;;;;;;13.05;7.68;;;;;;;-139.48;100.00;61774.03;5034126;28;20409;-67
2021/03/07 07:06:13;;;;;;;12.65;8.32;;;;;;;-139.48;100.00;61774.03;5034069;28;20103;-68
2021/03/07 07:08:57;;;;;;;13.30;8.02;;;;;;;-139.48;100.00;61774.03;5033958;28;20064;-66
2021/03/07 07:11:43;;;;;;;12.65;8.07;;;;;;;-139.48;100.00;61774.03;5019800;28;20056;-68
2021/03/07 07:14:42;;;;;;;13.02;7.25;;;;;;;-139.48;100.00;61774.03;5034821;28;20132;-68
2021/03/07 07:17:26;;;;;;;11.70;7.30;;;;;;;-139.48;100.00;61774.03;5006685;28;20571;-68
2021/03/07 07:20:12;;;;;;;11.30;7.10;;;;;;;-139.48;100.00;61774.03;5033657;28;20107;-68
2021/03/07 07:22:56;;;;;;;14.35;8.00;;;;;;;-139.48;100.00;61774.03;5019487;28;20052;-68
2021/03/07 07:25:42;;;;;;;11.13;6.82;;;;;;;-139.48;100.00;61774.03;5034858;28;20185;-68
2021/03/07 07:28:26;;;;;;;12.63;6.97;;;;;;;-139.48;100.00;61774.03;5034655;28;20083;-68
2021/03/07 07:31:28;;;;;;;14.07;7.05;;;;;;;-139.48;100.00;61774.03;5034781;28;20083;-68
2021/03/07 07:34:16;;;;;;;12.00;6.63;;;;;;;-139.48;100.00;61774.03;5019830;28;20052;-68
2021/03/07 07:37:13;;;;;;;10.93;6.57;;;;;;;-139.48;100.00;61774.03;5019322;28;20418;-67
2021/03/07 07:39:58;;;;;;;10.32;6.22;;;;;;;-139.48;100.00;61774.03;5019429;28;20060;-69
2021/03/07 07:42:56;;;;;;;10.50;6.93;;;;;;;-139.48;100.00;61774.03;5034353;28;20443;-68
2021/03/07 07:45:40;;;;;;;12.52;6.88;;;;;;;-139.48;100.00;61774.03;5033375;28;20048;-69
2021/03/07 07:48:33;;;;;;;;;;;;;;;-139.48;100.00;61774.03;5034685;28;20071;-69
2021/03/07 07:51:38;;;;;;;12.60;6.90;;;;;;;-139.48;100.00;61774.03;5019067;28;19920;-67
2021/03/07 07:54:46;;;;;;;;;;;;;;;-139.48;100.00;61774.03;5034187;28;20525;-68
2021/03/07 07:57:31;;;;;;;11.93;6.93;;;;;;;-139.48;100.00;61774.03;5033054;28;19966;-68
2021/03/07 08:00:23;;;;;;;12.40;6.93;;;;;;;-139.48;100.00;61774.03;5033271;28;20048;-67
2021/03/07 08:03:07;;;;;;;10.88;6.93;;;;;;;-139.48;100.00;61774.03;5018019;28;20080;-67
2021/03/07 08:05:51;;;;;;;11.85;7.05;;;;;;;-139.48;100.00;61774.03;5033101;28;20513;-67
2021/03/07 08:08:39;;;;;;;10.95;6.68;;;;;;;-139.48;100.00;61774.03;5033029;28;20386;-67
2021/03/07 08:11:28;;;;;;;9.88;6.80;;;;;;;-139.48;100.00;61774.03;5032250;28;20182;-67
2021/03/07 08:14:35;;;;;;;11.93;7.72;;;;;;;-139.48;100.00;61774.03;5031987;28;20049;-67
2021/03/07 08:17:51;;;;;;;10.25;7.13;;;;;;;-139.48;100.00;61774.03;5018268;28;20140;-67
2021/03/07 08:20:38;;;;;;;13.63;7.40;;;;;;;-139.48;100.00;61774.03;5018105;28;20504;-67
2021/03/07 08:23:23;;;;;;;11.27;7.50;;;;;;;-139.48;100.00;61774.03;5032933;28;20049;-66
2021/03/07 08:26:07;;;;;;;13.20;8.13;;;;;;;-139.48;100.00;61774.03;5033094;28;20053;-67
2021/03/07 08:28:51;;;;;;;13.40;8.15;;;;;;;-139.48;100.00;61774.03;5031715;28;20056;-67
2021/03/07 08:31:35;;;;;;;13.48;8.35;;;;;;;-139.48;100.00;61774.03;5018009;28;20136;-68
2021/03/07 08:34:21;;;;;;;13.35;8.80;;;;;;;-139.48;100.00;61774.03;5031915;28;20203;-67
2021/03/07 08:37:14;;;;;;;10.68;7.40;;;;;;;-139.48;100.00;61774.03;5031678;28;20056;-67
2021/03/07 08:40:31;;;;;;;12.65;7.45;;;;;;;-139.48;100.00;61774.03;5031817;28;20123;-67
2021/03/07 08:43:22;;;;;;;11.35;7.13;;;;;;;-139.48;100.00;61774.03;5032448;28;20123;-67
2021/03/07 08:46:15;;;;;;;13.20;8.02;;;;;;;-139.48;100.00;61774.03;5032541;28;20107;-67
2021/03/07 08:49:08;;;;;;;13.32;8.73;;;;;;;-139.48;100.00;61774.03;5031493;28;20136;-67
2021/03/07 08:52:03;;;;;;;12.55;8.35;;;;;;;-139.48;100.00;61774.03;5032734;28;20481;-67
2021/03/07 08:54:48;;;;;;;12.38;7.78;;;;;;;-139.48;100.00;61774.03;5031440;28;20040;-67
2021/03/07 08:57:31;;;;;;;14.02;8.48;;;;;;;-139.48;100.00;61774.03;5017243;28;20064;-67
2021/03/07 09:00:19;;;;;;;12.27;8.15;;;;;;;-139.48;100.00;61774.03;5003762;28;20115;-67
2021/03/07 09:03:04;;;;;;;12.98;7.47;;;;;;;-139.48;100.00;61774.03;5032458;28;20052;-67
2021/03/07 09:05:48;;;;;;;14.55;8.18;;;;;;;-139.48;100.00;61774.03;5032399;28;20052;-67
2021/03/07 09:08:33;;;;;;;11.30;7.28;;;;;;;-139.48;100.00;61774.03;5031088;28;20370;-67
2021/03/07 09:11:17;;;;;;;12.85;8.23;;;;;;;-139.48;100.00;61774.03;5032545;28;20144;-66
2021/03/07 09:14:01;;;;;;;12.10;7.75;;;;;;;-139.48;100.00;61774.03;5032255;28;20049;-67
2021/03/07 09:16:47;;;;;;;11.18;8.00;;;;;;;-139.48;100.00;61774.03;5031329;28;20466;-67
2021/03/07 09:19:33;;;;;;;11.50;8.35;;;;;;;-139.48;100.00;61774.03;5031260;28;20140;-67
2021/03/07 09:22:28;;;;;;;12.98;8.00;;;;;;;-139.48;100.00;61774.03;5017114;28;20095;-67
2021/03/07 09:25:15;;;;;;;;;;;;;;;-139.48;100.00;61774.03;5032674;28;20045;-67
2021/03/07 09:27:59;;;;;;;16.48;8.05;;;;;;;-139.48;100.00;61774.03;5032604;28;20388;-67
2021/03/07 09:30:43;;;;;;;10.95;7.90;;;;;;;-139.48;100.00;61774.03;5021240;28;20044;-67
2021/03/07 09:33:30;;;;;;;11.93;8.00;;;;;;;-139.48;100.00;61774.03;5034993;28;20183;-67
2021/03/07 09:36:15;;;;;;;11.95;8.20;;;;;;;-139.48;100.00;61774.03;5035466;28;20191;-68
2021/03/07 09:39:02;;;;;;;12.38;7.90;;;;;;;-139.48;100.00;61774.03;5020864;28;20102;-67
2021/03/07 09:41:46;;;;;;;13.70;8.35;;;;;;;-139.48;100.00;61774.03;5020913;28;20079;-68
2021/03/07 09:44:30;;;;;;;11.30;8.02;;;;;;;-139.48;100.00;61774.03;5020687;28;20450;-67
2021/03/07 09:47:15;;;;;;;;;;;;;;;-139.48;100.00;61774.03;5036019;28;20549;-67
2021/03/07 09:49:59;;;;;;;15.70;9.50;;;;;;;-139.48;100.00;61774.03;5020942;28;19920;-68
2021/03/07 09:52:45;;;;;;;11.43;8.00;;;;;;;-139.48;100.00;61774.03;5036345;28;20044;-68
2021/03/07 09:55:35;;;;;;;21.88;17.08;;;;;;;-139.48;100.00;61774.03;5035029;28;20040;-68
2021/03/07 09:58:33;;;;;;;12.77;9.40;;;;;;;-139.48;100.00;61774.03;5009006;28;20048;-67
2021/03/07 10:02:00;;;;;;;12.02;9.13;;;;;;;-139.48;100.00;61774.03;5009532;28;20098;-67
2021/03/07 10:04:51;;;;;;;14.10;8.63;;;;;;;-139.48;100.00;61774.03;5022663;28;20107;-67
2021/03/07 10:07:46;;;;;;;11.30;7.78;;;;;;;-139.48;100.00;61774.03;5009761;28;20438;-68
2021/03/07 10:10:49;;;;;;;17.50;14.30;;;;;;;-139.48;100.00;61774.03;5023736;28;20414;-69
2021/03/07 10:13:34;;;;;;;13.73;11.13;;;;;;;-139.48;100.00;61774.03;4977870;28;20098;-69
2021/03/07 10:16:28;;;;;;;;;;;;;;;-139.48;100.00;61774.03;5006910;28;20040;-69
2021/03/07 10:19:13;;;;;;;13.32;8.35;;;;;;;-139.48;100.00;61774.03;5035374;28;20016;-68
2021/03/07 10:21:57;;;;;;;10.95;8.48;;;;;;;-139.48;100.00;61774.03;5034143;28;20095;-68
2021/03/07 10:24:42;;;;;;;12.35;9.05;;;;;;;-139.48;100.00;61774.03;5020358;28;20095;-67
2021/03/07 10:27:31;;;;;;;12.98;9.07;;;;;;;-139.48;100.00;61774.03;5035225;28;20391;-69
2021/03/07 10:30:30;;;;;;;10.75;8.48;;;;;;;-139.48;100.00;61774.03;5035272;28;20114;-68
2021/03/07 10:33:51;;;;;;;17.48;12.27;;;;;;;-139.48;100.00;61774.03;5035523;28;20497;-67
2021/03/07 10:36:48;;;;;;;24.58;15.40;;;;;;;-139.48;100.00;61774.03;5022193;28;20088;-69
2021/03/07 10:39:33;;;;;;;11.45;8.80;;;;;;;-139.48;100.00;61774.03;5007248;28;20529;-68
2021/03/07 10:42:20;;;;;;;17.25;11.27;;;;;;;-139.48;100.00;61774.03;5035105;28;20045;-69
2021/03/07 10:45:20;;;;;;;26.95;14.95;;;;;;;-139.48;100.00;61774.03;5020242;28;20530;-68
2021/03/07 10:48:05;;;;;;;28.17;19.98;;;;;;;-139.48;100.00;61774.03;5034821;28;20434;-69
2021/03/07 10:50:49;;;;;;;78.78;52.42;;;;;;;-139.48;100.00;61774.03;5019430;28;20079;-68
2021/03/07 10:53:34;;;;;;;20.65;15.60;;;;;;;-139.48;100.00;61774.03;5034722;28;20041;-69
2021/03/07 10:56:19;;;;;;;18.67;13.98;;;;;;;-139.48;100.00;61774.03;5034785;28;20138;-68
2021/03/07 10:59:03;;;;;;;18.67;14.98;;;;;;;-139.48;100.00;61774.03;5019213;28;20222;-68
2021/03/07 11:01:47;;;;;;;16.50;13.52;;;;;;;-139.48;100.00;61774.03;5034397;28;20056;-69
2021/03/07 11:04:31;;;;;;;10.35;8.60;;;;;;;-139.48;100.00;61774.03;5034249;28;20128;-68
2021/03/07 11:07:16;;;;;;;12.77;9.38;;;;;;;-139.48;100.00;61774.03;5034496;28;20409;-69
2021/03/07 11:10:00;;;;;;;12.65;10.32;;;;;;;-139.48;100.00;61774.03;5033234;28;20187;-69
2021/03/07 11:12:45;;;;;;;10.05;8.95;;;;;;;-139.48;100.00;61774.03;5019358;28;20095;-68
2021/03/07 11:15:30;;;;;;;12.48;10.00;;;;;;;-139.48;100.00;61774.03;5019429;28;20052;-69
2021/03/07 11:18:14;;;;;;;23.55;21.08;;;;;;;-139.48;100.00;61774.03;5034025;28;20176;-70
2021/03/07 11:20:59;;;;;;;17.17;13.73;;;;;;;-139.48;100.00;61774.03;5034296;28;20524;-70
2021/03/07 11:23:43;;;;;;;11.70;9.45;;;;;;;-139.48;100.00;61774.03;5019798;28;20103;-69
2021/03/07 11:26:27;;;;;;;10.80;9.50;;;;;;;-139.48;100.00;61774.03;5034681;28;20461;-69
2021/03/07 11:29:12;;;;;;;14.70;11.27;;;;;;;-139.48;100.00;61774.03;5034745;28;20052;-70
2021/03/07 11:31:56;;;;;;;13.82;11.65;;;;;;;-139.48;100.00;61774.03;5034704;28;20119;-69
2021/03/07 11:34:40;;;;;;;35.10;24.42;;;;;;;-139.48;100.00;61774.03;5034580;28;20068;-70
2021/03/07 11:37:24;;;;;;;30.10;21.23;;;;;;;-139.48;100.00;61774.03;5019272;28;20099;-69
2021/03/07 11:40:08;;;;;;;18.20;13.90;;;;;;;-139.48;100.00;61774.03;5019645;28;20497;-69
2021/03/07 11:42:53;;;;;;;12.35;10.43;;;;;;;-139.48;100.00;61774.03;5019358;28;20098;-70
2021/03/07 11:45:37;;;;;;;71.50;45.25;;;;;;;-139.48;100.00;61774.03;5019443;28;20179;-70
2021/03/07 11:48:22;;;;;;;19.63;16.10;;;;;;;-139.48;100.00;61774.03;5034082;28;20052;-70
2021/03/07 11:51:06;;;;;;;20.00;16.38;;;;;;;-139.48;100.00;61774.03;5005099;28;20055;-70
2021/03/07 11:53:49;;;;;;;17.63;14.35;;;;;;;-139.48;100.00;61774.03;5019207;28;20406;-69
2021/03/07 11:56:33;;;;;;;42.55;32.58;;;;;;;-139.48;100.00;61774.03;5034190;28;20044;-69
2021/03/07 11:59:18;;;;;;;27.70;23.17;;;;;;;-139.48;100.00;61774.03;5034190;28;20190;-70
2021/03/07 12:02:02;;;;;;;10.27;9.27;;;;;;;-139.48;100.00;61774.03;5033876;28;20080;-69
2021/03/07 12:04:47;;;;;;;18.17;13.98;;;;;;;-139.48;100.00;61774.03;5033064;28;20048;-70
2021/03/07 12:07:31;;;;;;;124.57;92.57;;;;;;;-139.48;100.00;61774.03;5033955;28;20095;-69
2021/03/07 12:10:16;;;;;;;32.80;28.02;;;;;;;-139.48;100.00;61774.03;5033677;28;20099;-69
2021/03/07 12:13:00;;;;;;;15.93;14.07;;;;;;;-139.48;100.00;61774.03;5033963;28;20278;-69
2021/03/07 12:15:44;;;;;;;19.38;16.70;;;;;;;-139.48;100.00;61774.03;5018925;28;20052;-69
2021/03/07 12:18:28;;;;;;;12.35;9.90;;;;;;;-139.48;100.00;61774.03;5033589;28;20133;-70
2021/03/07 12:21:12;;;;;;;10.40;9.40;;;;;;;-139.48;100.00;61774.03;5033774;28;20052;-68
2021/03/07 12:23:56;;;;;;;14.40;12.80;;;;;;;-139.48;100.00;61774.03;5018759;28;20132;-70
2021/03/07 12:26:40;;;;;;;16.95;14.00;;;;;;;-139.48;100.00;61774.03;5056100;22;20060;-67
2021/03/07 12:29:24;;;;;;;12.02;10.93;;;;;;;-139.48;100.00;61774.03;5033423;28;20048;-66